Time;durP1;ratioP1;P1;durP2;ratioP2;P2;SDS_P1;SDS_P2;PMS_P1;PMS_P2;Temp;Humidity;BMP_temperature;BMP_pressure;BME280_temperature;BME280_humidity;BME280_pressure;Samples;Min_cycle;Max_cycle;Signal;HPM_P1;HPM_P2
2023/12/29 00:00:45;;;;;;;16.70;9.60;;;;;;;4.98;77.80;99273.86;104930;1283;600123;-39
2023/12/29 00:03:13;;;;;;;21.90;10.20;;;;;;;4.97;77.86;99276.27;106631;1265;60018;-39
2023/12/29 00:05:40;;;;;;;15.70;9.80;;;;;;;4.96;77.88;99277.45;106735;1269;60108;-38
2023/12/29 00:08:08;;;;;;;14.20;8.80;;;;;;;4.94;78.01;99273.92;106722;1266;72297;-38
2023/12/29 00:10:35;;;;;;;13.70;8.70;;;;;;;4.99;77.89;99277.02;106711;1265;67548;-38
2023/12/29 00:13:03;;;;;;;11.90;8.60;;;;;;;5.03;77.74;99274.98;106589;1267;72726;-38
2023/12/29 00:15:30;;;;;;;16.40;9.30;;;;;;;5.00;77.94;99275.02;106708;1264;140337;-38
2023/12/29 00:17:58;;;;;;;14.80;9.90;;;;;;;4.95;78.13;99270.05;106739;1263;59268;-39
2023/12/29 00:20:27;;;;;;;15.70;10.10;;;;;;;4.91;78.24;99276.19;106757;1264;70794;-38
2023/12/29 00:23:07;;;;;;;15.70;9.40;;;;;;;4.89;78.54;99277.64;106756;1263;66278;-38
2023/12/29 00:25:38;;;;;;;16.20;9.70;;;;;;;4.92;78.56;99276.77;106830;1264;72724;-38
2023/12/29 00:28:06;;;;;;;16.20;10.00;;;;;;;4.92;78.72;99273.23;106783;1263;60102;-38
2023/12/29 00:30:34;;;;;;;14.00;10.00;;;;;;;4.87;78.99;99272.50;106733;1263;59508;-38
2023/12/29 00:33:21;;;;;;;14.80;9.60;;;;;;;4.81;79.45;99266.65;106799;1263;72773;-38
2023/12/29 00:35:49;;;;;;;13.00;9.60;;;;;;;4.79;79.51;99263.29;106839;1263;67561;-39
2023/12/29 00:38:16;;;;;;;16.40;9.30;;;;;;;4.85;79.51;99263.27;106861;1263;72472;-38
2023/12/29 00:40:44;;;;;;;14.30;9.60;;;;;;;4.88;79.67;99259.64;106773;1263;59402;-38
2023/12/29 00:43:11;;;;;;;16.60;10.20;;;;;;;4.84;79.83;99256.64;106858;1263;59220;-39
2023/12/29 00:45:39;;;;;;;14.40;9.70;;;;;;;4.80;80.04;99256.86;106844;1263;73096;-39
2023/12/29 00:48:07;;;;;;;15.20;10.00;;;;;;;4.75;80.24;99252.77;106837;1263;66302;-39
2023/12/29 00:50:35;;;;;;;11.30;8.40;;;;;;;4.80;79.97;99255.06;106851;1263;72671;-39
2023/12/29 00:53:04;;;;;;;13.40;10.00;;;;;;;4.87;79.96;99252.40;106824;1264;59656;-39
2023/12/29 00:55:31;;;;;;;16.00;10.30;;;;;;;4.86;80.15;99256.41;106874;1263;59486;-39
2023/12/29 00:57:59;;;;;;;16.00;10.40;;;;;;;4.81;80.34;99248.63;106801;1269;73007;-39
2023/12/29 01:00:27;;;;;;;16.90;10.40;;;;;;;4.78;80.70;99242.63;106818;1263;66267;-39
2023/12/29 01:02:55;;;;;;;14.50;9.30;;;;;;;4.81;80.72;99241.56;106862;1264;72664;-39
2023/12/29 01:05:22;;;;;;;15.50;9.60;;;;;;;4.87;80.66;99239.27;106880;1263;59512;-39
2023/12/29 01:07:50;;;;;;;15.20;10.40;;;;;;;4.89;80.76;99239.65;106790;1269;59989;-39
2023/12/29 01:10:17;;;;;;;16.90;10.60;;;;;;;4.88;81.05;99235.24;106891;1263;71812;-39
2023/12/29 01:12:45;;;;;;;15.10;10.10;;;;;;;4.87;80.97;99233.73;106847;1263;66426;-39
2023/12/29 01:15:13;;;;;;;16.80;9.80;;;;;;;4.91;80.96;99231.74;106935;1263;72688;-40
2023/12/29 01:17:41;;;;;;;16.80;10.20;;;;;;;4.98;80.94;99224.43;106848;1263;59651;-39
2023/12/29 01:20:09;;;;;;;15.70;10.60;;;;;;;5.00;80.98;99223.50;106072;1263;1003623;-39
2023/12/29 01:22:37;;;;;;;15.90;10.80;;;;;;;5.01;80.99;99216.48;106934;1263;71857;-39
2023/12/29 01:25:05;;;;;;;15.60;10.50;;;;;;;5.01;80.82;99215.88;106765;1263;67941;-39
2023/12/29 01:27:34;;;;;;;15.30;9.40;;;;;;;5.08;80.64;99215.12;106799;1266;71481;-39
2023/12/29 01:30:01;;;;;;;14.30;10.30;;;;;;;5.15;80.37;99213.10;106734;1263;59384;-39
2023/12/29 01:32:29;;;;;;;14.20;9.70;;;;;;;5.14;80.25;99215.66;106852;1263;59519;-39
2023/12/29 01:34:56;;;;;;;15.60;11.10;;;;;;;5.11;80.49;99217.84;106735;1268;72907;-39
2023/12/29 01:37:24;;;;;;;18.10;11.10;;;;;;;5.07;80.70;99214.02;106758;1263;67711;-39
2023/12/29 01:39:52;;;;;;;14.70;9.40;;;;;;;5.04;80.64;99206.54;106740;1262;72699;-39
2023/12/29 01:42:19;;;;;;;17.40;11.00;;;;;;;5.16;80.46;99212.82;106766;1266;59659;-39
2023/12/29 01:44:51;;;;;;;17.60;10.60;;;;;;;5.20;80.49;99210.66;106847;1263;60193;-39
2023/12/29 01:47:19;;;;;;;15.80;10.80;;;;;;;5.20;80.71;99211.38;106753;1263;71848;-39
2023/12/29 01:49:47;;;;;;;16.00;10.90;;;;;;;5.19;80.58;99213.56;106771;1263;67573;-39
2023/12/29 01:52:16;;;;;;;16.10;10.70;;;;;;;5.18;80.64;99213.91;106680;1266;72705;-39
2023/12/29 01:54:45;;;;;;;;;;;;;;;5.22;80.49;99206.16;106717;1263;61097;-39
2023/12/29 01:57:13;;;;;;;17.40;9.80;;;;;;;5.28;80.44;99208.89;106758;1263;59865;-39
2023/12/29 01:59:40;;;;;;;17.10;11.20;;;;;;;5.26;80.50;99215.13;106746;1263;73000;-39
2023/12/29 02:02:08;;;;;;;21.60;11.80;;;;;;;5.22;80.68;99216.21;106722;1270;67613;-39
2023/12/29 02:04:36;;;;;;;16.00;10.60;;;;;;;5.19;80.73;99215.56;106759;1263;71490;-39
2023/12/29 02:07:05;;;;;;;13.80;10.20;;;;;;;5.21;80.64;99209.64;106698;1266;59698;-39
2023/12/29 02:09:34;;;;;;;18.30;11.80;;;;;;;5.25;80.60;99206.16;106086;1263;1002977;-39
2023/12/29 02:12:02;;;;;;;17.20;12.50;;;;;;;5.22;80.63;99200.48;106740;1263;73098;-39
2023/12/29 02:14:30;;;;;;;19.50;13.20;;;;;;;5.19;80.78;99196.73;106865;1263;66626;-39
2023/12/29 02:17:11;;;;;;;17.70;11.80;;;;;;;5.17;80.68;99189.39;106765;1263;71490;-39
2023/12/29 02:19:44;;;;;;;14.30;10.10;;;;;;;5.21;80.63;99192.22;106788;1263;60888;-39
2023/12/29 02:22:12;;;;;;;15.00;10.20;;;;;;;5.29;80.30;99195.34;106921;1263;60130;-39
2023/12/29 02:24:47;;;;;;;16.40;10.70;;;;;;;5.30;80.31;99192.38;106740;1263;73045;-39
2023/12/29 02:27:33;;;;;;;15.50;11.10;;;;;;;5.28;80.33;99192.77;106793;1263;67988;-39
2023/12/29 02:30:04;;;;;;;17.60;10.60;;;;;;;5.24;80.30;99189.79;106784;1263;72719;-39
2023/12/29 02:32:32;;;;;;;16.80;10.00;;;;;;;5.22;80.33;99185.50;106872;1263;59946;-38
2023/12/29 02:35:00;;;;;;;12.00;9.00;;;;;;;5.26;80.12;99182.89;106784;1263;60222;-38
2023/12/29 02:37:28;;;;;;;15.00;9.90;;;;;;;5.29;79.99;99178.69;106751;1263;73339;-38
2023/12/29 02:39:56;;;;;;;15.00;10.30;;;;;;;5.28;80.25;99175.70;106767;1263;66398;-39
2023/12/29 02:42:24;;;;;;;15.90;10.60;;;;;;;5.25;80.41;99174.33;106875;1264;71384;-38
2023/12/29 02:44:51;;;;;;;16.30;10.50;;;;;;;5.25;80.57;99175.73;106713;1263;59543;-39
2023/12/29 02:47:19;;;;;;;15.00;10.30;;;;;;;5.24;80.49;99177.71;106830;1263;59513;-38
2023/12/29 02:49:48;;;;;;;15.00;9.70;;;;;;;5.29;80.26;99182.53;106736;1263;73628;-39
2023/12/29 02:52:15;;;;;;;14.90;9.40;;;;;;;5.34;79.94;99176.88;106730;1263;67599;-39
2023/12/29 02:54:43;;;;;;;13.40;9.60;;;;;;;5.32;79.99;99176.05;106732;1268;72451;-40
2023/12/29 02:57:11;;;;;;;15.00;9.90;;;;;;;5.29;80.17;99176.82;106720;1263;59453;-39
2023/12/29 02:59:38;;;;;;;18.30;10.90;;;;;;;5.23;80.25;99179.18;106762;1269;58828;-39
2023/12/29 03:02:06;;;;;;;14.10;9.80;;;;;;;5.22;80.34;99176.52;106824;1268;70790;-39
2023/12/29 03:04:34;;;;;;;12.80;9.10;;;;;;;5.25;80.24;99180.23;106777;1263;66289;-39
2023/12/29 03:07:01;;;;;;;16.70;10.70;;;;;;;5.28;80.07;99180.31;106713;1263;71122;-39
2023/12/29 03:09:29;;;;;;;15.40;10.00;;;;;;;5.22;80.21;99175.45;106861;1263;60137;-39
2023/12/29 03:11:57;;;;;;;17.30;10.10;;;;;;;5.19;80.43;99170.96;106845;1263;60088;-39
2023/12/29 03:14:24;;;;;;;13.40;9.30;;;;;;;5.16;80.37;99174.63;106770;1271;71822;-39
2023/12/29 03:16:52;;;;;;;15.10;8.90;;;;;;;5.20;80.12;99169.44;106768;1263;66311;-39
2023/12/29 03:19:19;;;;;;;13.80;9.70;;;;;;;5.25;79.99;99173.63;106831;1264;71472;-39
2023/12/29 03:21:47;;;;;;;15.00;10.30;;;;;;;5.23;80.01;99171.33;106750;1263;59501;-39
2023/12/29 03:24:14;;;;;;;14.50;10.10;;;;;;;5.20;80.01;99177.19;106827;1263;59698;-39
2023/12/29 03:26:42;;;;;;;17.40;10.50;;;;;;;5.15;80.26;99180.09;106772;1269;73055;-39
2023/12/29 03:29:10;;;;;;;16.30;9.90;;;;;;;5.14;80.24;99184.11;106831;1263;66819;-39
2023/12/29 03:31:37;;;;;;;11.70;8.60;;;;;;;5.18;80.00;99179.66;106728;1266;71999;-39
2023/12/29 03:34:06;;;;;;;15.10;9.60;;;;;;;5.23;79.84;99180.06;106766;1266;59507;-39
2023/12/29 03:36:34;;;;;;;14.70;9.90;;;;;;;5.23;79.86;99178.46;106791;1266;60158;-39
2023/12/29 03:39:02;;;;;;;13.20;9.60;;;;;;;5.21;79.89;99182.45;106745;1264;71844;-39
2023/12/29 03:41:30;;;;;;;14.30;9.20;;;;;;;5.16;80.05;99181.29;106750;1266;67589;-39
2023/12/29 03:43:59;;;;;;;13.70;9.90;;;;;;;5.13;80.25;99184.31;106754;1265;71461;-39
2023/12/29 03:46:26;;;;;;;14.40;8.70;;;;;;;5.15;80.15;99174.34;106738;1268;59687;-39
2023/12/29 03:48:54;;;;;;;15.40;9.60;;;;;;;5.19;80.01;99166.71;106777;1266;60116;-39
2023/12/29 03:51:22;;;;;;;13.50;9.30;;;;;;;5.20;80.24;99171.90;106903;1263;73148;-39
2023/12/29 03:53:49;;;;;;;13.20;9.60;;;;;;;5.20;80.27;99179.05;106871;1261;65419;-39
2023/12/29 03:56:18;;;;;;;12.80;9.50;;;;;;;5.20;80.00;99179.83;106864;1262;71430;-39
2023/12/29 03:58:46;;;;;;;16.40;10.20;;;;;;;5.18;79.89;99182.42;106898;1263;61285;-39
2023/12/29 04:01:15;;;;;;;15.80;10.40;;;;;;;5.17;79.65;99179.55;106878;1262;59243;-39
2023/12/29 04:03:43;;;;;;;13.10;10.10;;;;;;;5.17;79.34;99181.86;106948;1263;70859;-39
2023/12/29 04:06:12;;;;;;;13.80;10.00;;;;;;;5.12;79.33;99180.44;106925;1263;66772;-39
2023/12/29 04:08:40;;;;;;;18.60;10.50;;;;;;;5.04;79.26;99176.45;106895;1263;72858;-39
2023/12/29 04:11:07;;;;;;;16.70;11.30;;;;;;;4.94;79.18;99172.09;106883;1267;60464;-39
2023/12/29 04:13:36;;;;;;;16.20;11.00;;;;;;;4.87;79.21;99173.87;106887;1263;60332;-39
2023/12/29 04:16:05;;;;;;;16.20;9.80;;;;;;;4.84;79.04;99174.66;106882;1262;73873;-39
2023/12/29 04:18:33;;;;;;;13.90;9.80;;;;;;;4.84;78.93;99177.98;106909;1262;67904;-39
2023/12/29 04:21:01;;;;;;;17.30;11.40;;;;;;;4.78;78.84;99178.23;106883;1262;71527;-39
2023/12/29 04:23:28;;;;;;;17.10;11.50;;;;;;;4.70;78.84;99176.31;106858;1264;60375;-39
2023/12/29 04:25:56;;;;;;;15.90;11.10;;;;;;;4.62;78.82;99175.28;106889;1263;59714;-39
2023/12/29 04:28:23;;;;;;;17.90;11.50;;;;;;;4.53;78.84;99184.15;106889;1263;73800;-39
2023/12/29 04:30:51;;;;;;;17.30;10.90;;;;;;;4.44;78.83;99187.59;106912;1262;66059;-39
2023/12/29 04:33:19;;;;;;;14.90;10.00;;;;;;;4.40;78.69;99183.02;106882;1264;72742;-39
2023/12/29 04:35:46;;;;;;;14.60;10.10;;;;;;;4.38;78.72;99181.66;106883;1261;60505;-39
2023/12/29 04:38:14;;;;;;;14.70;10.10;;;;;;;4.31;78.87;99181.12;107569;1253;60497;-40
2023/12/29 04:40:42;;;;;;;16.90;11.30;;;;;;;4.21;79.12;99179.95;107395;1253;73877;-39
2023/12/29 04:43:09;;;;;;;15.40;11.10;;;;;;;4.10;79.16;99174.56;107394;1253;66291;-39
2023/12/29 04:45:37;;;;;;;17.20;10.60;;;;;;;4.00;79.40;99179.13;107368;1258;72443;-39
2023/12/29 04:48:04;;;;;;;14.50;10.50;;;;;;;3.97;79.54;99176.70;107415;1253;60441;-39
2023/12/29 04:50:32;;;;;;;17.10;10.10;;;;;;;3.96;79.43;99169.31;107389;1253;60377;-39
2023/12/29 04:53:00;;;;;;;15.50;10.40;;;;;;;3.92;79.43;99173.83;107394;1253;73799;-39
2023/12/29 04:55:28;;;;;;;16.50;11.30;;;;;;;3.84;79.63;99178.11;107361;1253;67631;-39
2023/12/29 04:57:55;;;;;;;16.70;11.60;;;;;;;3.74;79.90;99175.45;107382;1253;72962;-39
2023/12/29 05:00:23;;;;;;;17.90;11.30;;;;;;;3.64;80.04;99179.16;107399;1254;60439;-39
2023/12/29 05:02:50;;;;;;;16.20;10.90;;;;;;;3.59;80.05;99176.20;107561;1255;60293;-39
2023/12/29 05:05:18;;;;;;;16.10;10.30;;;;;;;3.60;80.11;99176.16;107408;1253;72678;-39
2023/12/29 05:07:45;;;;;;;16.60;11.40;;;;;;;3.55;80.35;99176.39;107426;1254;66389;-39
2023/12/29 05:10:13;;;;;;;15.80;11.00;;;;;;;3.48;80.62;99176.11;107370;1258;72677;-39
2023/12/29 05:12:41;;;;;;;18.50;11.30;;;;;;;3.43;80.83;99176.65;107375;1259;60337;-39
2023/12/29 05:15:09;;;;;;;17.70;11.50;;;;;;;3.39;80.86;99177.60;107554;1259;60393;-38
2023/12/29 05:17:38;;;;;;;18.60;10.20;;;;;;;3.40;80.78;99174.35;107605;1253;73838;-38
2023/12/29 05:20:08;;;;;;;18.50;10.60;;;;;;;3.41;80.60;99174.96;107421;1258;66301;-38
2023/12/29 05:22:35;;;;;;;17.40;11.10;;;;;;;3.40;80.80;99178.41;107398;1253;72519;-39
2023/12/29 05:25:03;;;;;;;17.00;11.00;;;;;;;3.38;80.92;99188.08;107364;1255;60404;-39
2023/12/29 05:27:31;;;;;;;17.30;11.80;;;;;;;3.38;80.78;99205.18;107468;1253;60437;-38
2023/12/29 05:30:01;;;;;;;16.60;10.80;;;;;;;3.32;80.35;99205.69;106595;1253;1002863;-38
2023/12/29 05:32:28;;;;;;;18.60;11.00;;;;;;;3.30;80.25;99204.23;107528;1253;66617;-38
2023/12/29 05:34:56;;;;;;;16.80;11.20;;;;;;;3.30;80.25;99202.46;107414;1253;72701;-38
2023/12/29 05:37:24;;;;;;;19.00;11.60;;;;;;;3.25;80.38;99207.70;107363;1259;60453;-38
2023/12/29 05:39:51;;;;;;;17.40;11.20;;;;;;;3.18;80.52;99213.02;107361;1253;60431;-38
2023/12/29 05:42:19;;;;;;;16.00;12.00;;;;;;;3.10;80.70;99207.31;107562;1253;73960;-38
2023/12/29 05:44:46;;;;;;;20.70;12.20;;;;;;;3.02;81.02;99207.34;107371;1253;67544;-38
2023/12/29 05:47:15;;;;;;;17.00;10.80;;;;;;;3.03;81.00;99203.02;107390;1253;72756;-38
2023/12/29 05:49:43;;;;;;;17.10;12.00;;;;;;;3.09;80.69;99208.27;107363;1253;60317;-39
2023/12/29 05:52:11;;;;;;;16.70;11.10;;;;;;;3.08;80.67;99209.10;107403;1258;60299;-38
2023/12/29 05:54:38;;;;;;;18.00;12.10;;;;;;;3.03;80.73;99217.95;107400;1258;72699;-38
2023/12/29 05:57:06;;;;;;;17.90;12.00;;;;;;;2.99;80.77;99219.81;107383;1255;67534;-38
2023/12/29 05:59:33;;;;;;;20.10;12.30;;;;;;;2.92;80.64;99219.70;107388;1258;72829;-39
2023/12/29 06:02:01;;;;;;;15.90;11.20;;;;;;;2.79;80.79;99203.29;107355;1254;61034;-38
2023/12/29 06:04:28;;;;;;;15.70;10.50;;;;;;;2.89;80.66;99214.14;107398;1254;60417;-38
2023/12/29 06:06:56;;;;;;;14.70;10.90;;;;;;;2.93;80.63;99211.95;107382;1253;73876;-38
2023/12/29 06:09:23;;;;;;;16.30;11.10;;;;;;;2.90;80.84;99206.56;107425;1253;68028;-38
2023/12/29 06:11:51;;;;;;;17.10;11.70;;;;;;;2.83;81.07;99204.61;107389;1258;72686;-39
2023/12/29 06:14:19;;;;;;;15.90;11.00;;;;;;;2.79;81.39;99202.41;107394;1253;60381;-39
2023/12/29 06:16:47;;;;;;;18.50;11.10;;;;;;;2.75;81.33;99200.26;107408;1253;59247;-39
2023/12/29 06:19:14;;;;;;;18.20;10.70;;;;;;;2.80;81.46;99195.27;107429;1259;73846;-39
2023/12/29 06:21:45;;;;;;;14.70;10.90;;;;;;;2.86;81.34;99196.19;107419;1254;67590;-39
2023/12/29 06:24:13;;;;;;;17.10;11.10;;;;;;;2.88;81.58;99200.95;107365;1254;72730;-39
2023/12/29 06:26:43;;;;;;;15.30;11.00;;;;;;;2.85;81.90;99197.61;107400;1253;60461;-39
2023/12/29 06:29:11;;;;;;;16.80;11.30;;;;;;;2.84;82.00;99205.79;107396;1258;60348;-39
2023/12/29 06:31:42;;;;;;;17.30;11.30;;;;;;;2.83;82.15;99205.44;107471;1254;73827;-39
2023/12/29 06:34:10;;;;;;;16.70;11.40;;;;;;;2.87;81.99;99201.45;107420;1258;67578;-39
2023/12/29 06:36:38;;;;;;;17.00;11.50;;;;;;;2.92;82.01;99202.86;107380;1256;72449;-39
2023/12/29 06:39:05;;;;;;;16.30;11.80;;;;;;;2.90;82.08;99199.00;107379;1256;60456;-39
2023/12/29 06:41:33;;;;;;;18.20;11.60;;;;;;;2.89;82.48;99195.03;107394;1254;60431;-39
2023/12/29 06:44:01;;;;;;;17.90;11.30;;;;;;;2.87;82.66;99195.46;107370;1258;73827;-39
2023/12/29 06:46:28;;;;;;;15.80;11.00;;;;;;;2.90;82.83;99198.37;107375;1256;67757;-39
2023/12/29 06:48:56;;;;;;;17.60;10.50;;;;;;;2.98;82.80;99198.94;107391;1258;72653;-39
2023/12/29 06:51:24;;;;;;;15.40;10.70;;;;;;;3.00;83.09;99202.19;107385;1253;60435;-39
2023/12/29 06:53:51;;;;;;;18.50;11.70;;;;;;;2.99;83.32;99201.40;107428;1255;60453;-39
2023/12/29 06:56:19;;;;;;;15.70;11.10;;;;;;;2.99;83.58;99195.73;107420;1254;73834;-39
2023/12/29 06:58:46;;;;;;;14.90;10.30;;;;;;;3.06;83.52;99193.57;107393;1258;68098;-39
2023/12/29 07:01:15;;;;;;;15.50;10.40;;;;;;;3.16;83.50;99193.39;107376;1258;71396;-39
2023/12/29 07:03:43;;;;;;;13.20;8.80;;;;;;;3.19;83.64;99193.30;107586;1254;60438;-39
2023/12/29 07:06:12;;;;;;;18.10;11.30;;;;;;;3.20;83.95;99196.63;107410;1254;60496;-39
2023/12/29 07:08:39;;;;;;;20.10;11.00;;;;;;;3.22;84.17;99203.16;107414;1255;72896;-39
2023/12/29 07:11:11;;;;;;;16.90;10.60;;;;;;;3.31;83.96;99202.00;107384;1259;66276;-39
2023/12/29 07:13:39;;;;;;;15.10;10.10;;;;;;;3.43;83.84;99197.15;107435;1254;72422;-39
2023/12/29 07:16:06;;;;;;;15.40;10.90;;;;;;;3.46;83.85;99206.32;107394;1258;60501;-39
2023/12/29 07:18:34;;;;;;;16.60;11.70;;;;;;;3.48;84.00;99211.49;107420;1258;60573;-39
2023/12/29 07:21:02;;;;;;;15.90;10.70;;;;;;;3.54;84.20;99207.58;107393;1254;73880;-39
2023/12/29 07:23:30;;;;;;;17.10;11.50;;;;;;;3.67;83.93;99201.41;107395;1259;67573;-39
2023/12/29 07:25:57;;;;;;;15.40;10.60;;;;;;;3.83;83.77;99201.05;107424;1258;72472;-39
2023/12/29 07:28:25;;;;;;;15.50;10.40;;;;;;;3.94;83.69;99205.18;107383;1254;60428;-39
2023/12/29 07:30:53;;;;;;;17.00;11.20;;;;;;;4.02;83.67;99201.77;107429;1254;60418;-40
2023/12/29 07:33:21;;;;;;;16.10;9.80;;;;;;;4.11;83.48;99200.66;107415;1259;71927;-40
2023/12/29 07:35:50;;;;;;;14.90;9.70;;;;;;;4.24;83.00;99200.02;107484;1258;67572;-40
2023/12/29 07:38:17;;;;;;;13.70;9.20;;;;;;;4.39;82.49;99199.20;107456;1259;71468;-40
2023/12/29 07:40:44;;;;;;;16.10;10.10;;;;;;;4.44;82.08;99201.19;107436;1256;60426;-40
2023/12/29 07:43:12;;;;;;;16.70;10.80;;;;;;;4.46;81.95;99201.90;107407;1259;60300;-40
2023/12/29 07:45:40;;;;;;;14.90;9.70;;;;;;;4.51;81.88;99208.23;107404;1254;73765;-40
2023/12/29 07:48:07;;;;;;;15.70;9.00;;;;;;;4.62;81.44;99204.70;107381;1254;67938;-40
2023/12/29 07:50:38;;;;;;;16.80;10.20;;;;;;;4.71;81.16;99210.17;107417;1259;72746;-40
2023/12/29 07:53:06;;;;;;;16.40;10.30;;;;;;;4.74;81.20;99212.52;107370;1255;60428;-40
2023/12/29 07:55:38;;;;;;;17.10;10.20;;;;;;;4.77;80.84;99205.50;107406;1259;59247;-40
2023/12/29 07:58:06;;;;;;;17.50;10.90;;;;;;;4.81;80.53;99206.42;107420;1254;72563;-40
2023/12/29 08:00:33;;;;;;;17.40;10.50;;;;;;;4.92;80.14;99213.02;107287;1255;67939;-40
2023/12/29 08:03:01;;;;;;;17.40;10.10;;;;;;;4.97;79.69;99217.55;107354;1254;72726;-40
2023/12/29 08:05:28;;;;;;;16.30;10.20;;;;;;;4.96;79.47;99222.27;107417;1254;60415;-40
2023/12/29 08:07:56;;;;;;;16.20;11.00;;;;;;;4.95;79.48;99220.06;107353;1255;59279;-40
2023/12/29 08:10:24;;;;;;;16.30;10.30;;;;;;;4.94;79.49;99221.58;107344;1254;73775;-40
2023/12/29 08:12:52;;;;;;;13.20;9.40;;;;;;;5.00;79.20;99225.82;107369;1254;68086;-40
2023/12/29 08:15:19;;;;;;;15.40;9.80;;;;;;;5.07;79.06;99227.13;107386;1258;71798;-40
2023/12/29 08:17:47;;;;;;;15.80;10.00;;;;;;;5.07;79.12;99226.38;107366;1260;60313;-40
2023/12/29 08:20:15;;;;;;;15.10;10.90;;;;;;;5.05;79.05;99235.98;107429;1258;60313;-40
2023/12/29 08:22:43;;;;;;;14.30;9.90;;;;;;;5.06;79.04;99235.03;107397;1259;72535;-40
2023/12/29 08:25:11;;;;;;;12.30;8.90;;;;;;;5.16;79.04;99231.59;107444;1254;66613;-40
2023/12/29 08:27:38;;;;;;;14.30;9.30;;;;;;;5.27;78.64;99231.58;107390;1254;72691;-40
2023/12/29 08:30:07;;;;;;;15.10;10.10;;;;;;;5.27;78.37;99224.45;107397;1258;60534;-40
2023/12/29 08:32:35;;;;;;;14.00;10.10;;;;;;;5.28;78.39;99227.63;107453;1254;60174;-40
2023/12/29 08:35:03;;;;;;;19.20;10.20;;;;;;;5.31;78.37;99235.06;107463;1254;73952;-40
2023/12/29 08:37:33;;;;;;;15.30;9.60;;;;;;;5.44;78.20;99219.17;107464;1254;67974;-40
2023/12/29 08:40:00;;;;;;;12.90;9.20;;;;;;;5.60;77.93;99210.41;107374;1259;72793;-40
2023/12/29 08:42:29;;;;;;;17.40;11.00;;;;;;;5.69;77.41;99210.10;107356;1259;60549;-40
2023/12/29 08:44:58;;;;;;;14.70;10.20;;;;;;;5.75;77.12;99216.44;107439;1254;60354;-40
2023/12/29 08:47:26;;;;;;;16.10;10.10;;;;;;;5.81;76.85;99219.72;107414;1254;72610;-40
2023/12/29 08:49:54;;;;;;;14.60;9.70;;;;;;;5.90;76.53;99220.06;107385;1255;66274;-40
2023/12/29 08:52:22;;;;;;;14.70;10.60;;;;;;;5.94;75.86;99205.45;107385;1254;72502;-40
2023/12/29 08:54:49;;;;;;;15.20;10.00;;;;;;;6.04;75.79;99215.73;107386;1258;60448;-40
2023/12/29 08:57:17;;;;;;;16.20;10.70;;;;;;;6.09;75.41;99219.27;107395;1254;60489;-39
2023/12/29 08:59:44;;;;;;;15.50;10.00;;;;;;;6.12;75.06;99216.70;107500;1254;72931;-39
2023/12/29 09:02:12;;;;;;;12.90;8.80;;;;;;;6.20;74.80;99215.51;107384;1254;67697;-39
2023/12/29 09:04:39;;;;;;;13.30;9.20;;;;;;;6.28;74.28;99208.68;107387;1258;71442;-39
2023/12/29 09:07:07;;;;;;;12.70;9.60;;;;;;;6.27;74.19;99203.05;107354;1257;60107;-39
2023/12/29 09:09:34;;;;;;;14.70;9.80;;;;;;;6.25;74.39;99197.66;107418;1254;59340;-38
2023/12/29 09:12:03;;;;;;;13.40;9.90;;;;;;;6.25;74.27;99196.13;107399;1258;73082;-38
2023/12/29 09:14:32;;;;;;;14.50;9.50;;;;;;;6.27;74.27;99192.66;107481;1259;67576;-38
2023/12/29 09:17:00;;;;;;;16.50;9.50;;;;;;;6.31;73.94;99191.02;107409;1254;72673;-39
2023/12/29 09:19:28;;;;;;;13.50;9.40;;;;;;;6.32;74.08;99189.38;107496;1259;59594;-38
2023/12/29 09:22:06;;;;;;;14.10;9.60;;;;;;;6.31;74.01;99195.09;107409;1254;60089;-39
2023/12/29 09:24:33;;;;;;;14.80;8.90;;;;;;;6.29;74.08;99195.19;107385;1254;73866;-39
2023/12/29 09:27:01;;;;;;;14.60;9.20;;;;;;;6.32;74.14;99188.45;107400;1259;67872;-39
2023/12/29 09:29:29;;;;;;;13.30;9.00;;;;;;;6.40;73.99;99186.02;107436;1259;71446;-39
2023/12/29 09:31:56;;;;;;;14.10;9.50;;;;;;;6.43;74.03;99180.51;107377;1258;60508;-38
2023/12/29 09:34:24;;;;;;;15.60;9.40;;;;;;;6.45;74.01;99184.39;107445;1254;60314;-38
2023/12/29 09:36:51;;;;;;;15.80;9.70;;;;;;;6.47;73.97;99186.94;107425;1254;72729;-38
2023/12/29 09:39:19;;;;;;;14.60;9.00;;;;;;;6.51;73.89;99188.75;107428;1254;66830;-39
2023/12/29 09:41:50;;;;;;;15.40;9.00;;;;;;;6.60;73.73;99188.08;107384;1254;71489;-39
2023/12/29 09:44:17;;;;;;;14.60;9.70;;;;;;;6.65;73.73;99186.33;107351;1259;60470;-38
2023/12/29 09:46:45;;;;;;;15.50;9.60;;;;;;;6.65;73.63;99180.88;107207;1253;60275;-39
2023/12/29 09:49:12;;;;;;;14.40;10.10;;;;;;;6.65;73.75;99176.79;107261;1254;71938;-39
2023/12/29 09:51:40;;;;;;;11.60;8.40;;;;;;;6.66;73.73;99172.43;107466;1260;67557;-39
2023/12/29 09:54:08;;;;;;;14.10;8.50;;;;;;;6.73;73.45;99162.71;107399;1254;72459;-39
2023/12/29 09:56:38;;;;;;;12.50;8.90;;;;;;;6.81;73.30;99166.98;107406;1257;60457;-39
2023/12/29 09:59:06;;;;;;;17.50;9.00;;;;;;;6.84;73.38;99159.82;107395;1259;60492;-39
2023/12/29 10:01:34;;;;;;;14.60;9.60;;;;;;;6.85;73.53;99158.55;107417;1254;73861;-38
2023/12/29 10:04:02;;;;;;;15.30;9.30;;;;;;;6.86;73.58;99161.13;107411;1254;66319;-38
2023/12/29 10:06:31;;;;;;;14.80;9.50;;;;;;;6.87;73.29;99158.09;107428;1259;72832;-39
2023/12/29 10:08:58;;;;;;;14.10;9.60;;;;;;;6.92;73.22;99153.98;107405;1254;61902;-39
2023/12/29 10:11:26;;;;;;;14.90;9.20;;;;;;;6.94;72.87;99151.27;107368;1254;60322;-39
2023/12/29 10:13:55;;;;;;;14.20;10.00;;;;;;;6.90;72.85;99152.73;107276;1254;73879;-39
2023/12/29 10:16:38;;;;;;;16.20;9.90;;;;;;;6.86;73.10;99147.59;107493;1254;66011;-39
2023/12/29 10:19:08;;;;;;;12.80;9.10;;;;;;;6.82;73.15;99138.91;107374;1257;71505;-39
2023/12/29 10:21:51;;;;;;;13.90;9.40;;;;;;;6.84;73.40;99132.59;107375;1255;61628;-39
2023/12/29 10:24:20;;;;;;;12.10;8.80;;;;;;;6.90;73.44;99133.13;107261;1254;60445;-39
2023/12/29 10:26:49;;;;;;;14.20;9.10;;;;;;;6.92;73.15;99133.98;107401;1254;73891;-39
2023/12/29 10:29:18;;;;;;;14.50;9.00;;;;;;;6.91;73.11;99134.11;107483;1254;67898;-38
2023/12/29 10:31:46;;;;;;;14.10;8.70;;;;;;;6.92;73.22;99132.66;107390;1255;72663;-39
2023/12/29 10:34:28;;;;;;;15.00;9.40;;;;;;;6.99;73.40;99132.41;106597;1257;1003018;-38
2023/12/29 10:37:01;;;;;;;14.30;9.30;;;;;;;7.07;73.22;99130.48;107510;1254;60404;-39
2023/12/29 10:39:29;;;;;;;14.50;9.50;;;;;;;7.08;73.11;99131.66;107421;1254;73809;-39
2023/12/29 10:42:07;;;;;;;15.40;10.80;;;;;;;7.09;73.40;99137.16;107475;1254;65370;-40
2023/12/29 10:44:35;;;;;;;16.10;9.60;;;;;;;7.11;73.32;99136.08;107409;1255;71443;-40
2023/12/29 10:47:10;;;;;;;12.50;9.30;;;;;;;7.17;73.33;99138.70;107378;1254;60465;-40
2023/12/29 10:49:38;;;;;;;12.70;9.40;;;;;;;7.23;73.30;99129.40;107469;1254;60335;-39
2023/12/29 10:52:16;;;;;;;16.70;10.40;;;;;;;7.26;73.17;99128.33;107464;1258;72699;-39
2023/12/29 10:54:44;;;;;;;15.30;10.90;;;;;;;7.26;73.08;99123.48;107434;1254;67077;-39
2023/12/29 10:57:12;;;;;;;16.80;10.80;;;;;;;7.27;73.10;99127.27;107404;1255;72723;-39
2023/12/29 10:59:40;;;;;;;14.40;10.10;;;;;;;7.33;73.27;99130.09;107384;1256;61736;-39
2023/12/29 11:02:14;;;;;;;15.30;9.70;;;;;;;7.43;72.91;99132.88;107379;1254;60525;-39
2023/12/29 11:04:42;;;;;;;16.90;10.50;;;;;;;7.51;72.76;99130.56;107453;1254;71621;-39
2023/12/29 11:07:12;;;;;;;15.20;10.30;;;;;;;7.58;72.60;99132.90;107454;1256;68119;-39
2023/12/29 11:09:39;;;;;;;15.60;10.00;;;;;;;7.57;72.43;99121.56;107466;1258;71311;-38
2023/12/29 11:12:07;;;;;;;15.00;9.60;;;;;;;7.68;72.31;99133.87;107378;1254;60390;-39
2023/12/29 11:14:34;;;;;;;13.30;9.10;;;;;;;7.79;71.73;99131.15;107402;1254;60444;-38
2023/12/29 11:17:04;;;;;;;13.90;9.60;;;;;;;7.92;71.01;99128.09;107405;1254;73941;-39
2023/12/29 11:19:31;;;;;;;17.40;10.00;;;;;;;7.97;70.19;99121.92;107414;1260;67083;-39
2023/12/29 11:21:59;;;;;;;14.60;10.00;;;;;;;8.00;69.27;99122.80;107313;1254;72693;-38
2023/12/29 11:24:26;;;;;;;15.80;10.70;;;;;;;8.00;68.88;99114.36;107250;1260;60843;-39